sensor_id;sensor_type;location;lat;lon;timestamp;temperature;humidity
17170;DHT22;8700;48.222;16.342;2023-12-20T00:00:42;3.40;99.90
17170;DHT22;8700;48.222;16.342;2023-12-20T00:04:05;3.50;99.90
17170;DHT22;8700;48.222;16.342;2023-12-20T00:07:26;3.50;99.90
17170;DHT22;8700;48.222;16.342;2023-12-20T00:10:48;3.70;99.90
17170;DHT22;8700;48.222;16.342;2023-12-20T00:14:09;4.00;99.90
17170;DHT22;8700;48.222;16.342;2023-12-20T00:17:30;4.20;99.90
17170;DHT22;8700;48.222;16.342;2023-12-20T00:20:53;4.20;99.90
17170;DHT22;8700;48.222;16.342;2023-12-20T00:24:14;4.10;99.90
17170;DHT22;8700;48.222;16.342;2023-12-20T00:27:36;4.20;99.90
17170;DHT22;8700;48.222;16.342;2023-12-20T00:30:57;4.20;99.90
17170;DHT22;8700;48.222;16.342;2023-12-20T00:34:18;4.30;99.90
17170;DHT22;8700;48.222;16.342;2023-12-20T00:37:42;4.40;99.90
17170;DHT22;8700;48.222;16.342;2023-12-20T00:41:04;4.50;99.90
17170;DHT22;8700;48.222;16.342;2023-12-20T00:44:26;4.40;99.90
17170;DHT22;8700;48.222;16.342;2023-12-20T00:47:47;4.40;99.90
17170;DHT22;8700;48.222;16.342;2023-12-20T00:51:08;4.10;99.90
17170;DHT22;8700;48.222;16.342;2023-12-20T00:54:31;3.70;99.90
17170;DHT22;8700;48.222;16.342;2023-12-20T00:57:52;3.40;99.90
17170;DHT22;8700;48.222;16.342;2023-12-20T01:01:14;3.20;99.90
17170;DHT22;8700;48.222;16.342;2023-12-20T01:04:36;2.90;99.90
17170;DHT22;8700;48.222;16.342;2023-12-20T01:07:57;2.80;99.90
17170;DHT22;8700;48.222;16.342;2023-12-20T01:11:20;2.80;99.90
17170;DHT22;8700;48.222;16.342;2023-12-20T01:14:41;2.90;99.90
17170;DHT22;8700;48.222;16.342;2023-12-20T01:18:03;2.80;99.90
17170;DHT22;8700;48.222;16.342;2023-12-20T01:21:24;2.90;99.90
17170;DHT22;8700;48.222;16.342;2023-12-20T01:24:46;2.90;99.90
17170;DHT22;8700;48.222;16.342;2023-12-20T01:28:08;2.80;99.90
17170;DHT22;8700;48.222;16.342;2023-12-20T01:31:29;2.90;99.90
17170;DHT22;8700;48.222;16.342;2023-12-20T01:34:51;2.90;99.90
17170;DHT22;8700;48.222;16.342;2023-12-20T01:38:12;2.90;99.90
17170;DHT22;8700;48.222;16.342;2023-12-20T01:41:33;2.90;99.90
17170;DHT22;8700;48.222;16.342;2023-12-20T01:44:56;2.90;99.90
17170;DHT22;8700;48.222;16.342;2023-12-20T01:48:17;2.90;99.90
17170;DHT22;8700;48.222;16.342;2023-12-20T01:51:39;2.80;99.90
17170;DHT22;8700;48.222;16.342;2023-12-20T01:55:00;2.80;99.90
17170;DHT22;8700;48.222;16.342;2023-12-20T01:58:24;2.90;99.90
17170;DHT22;8700;48.222;16.342;2023-12-20T02:01:48;3.00;99.90
17170;DHT22;8700;48.222;16.342;2023-12-20T02:05:10;2.90;99.90
17170;DHT22;8700;48.222;16.342;2023-12-20T02:08:31;2.90;99.90
17170;DHT22;8700;48.222;16.342;2023-12-20T02:11:54;2.90;99.90
17170;DHT22;8700;48.222;16.342;2023-12-20T02:15:15;2.90;99.90
17170;DHT22;8700;48.222;16.342;2023-12-20T02:18:38;2.90;99.90
17170;DHT22;8700;48.222;16.342;2023-12-20T02:22:08;2.90;99.90
17170;DHT22;8700;48.222;16.342;2023-12-20T02:25:30;2.80;99.90
17170;DHT22;8700;48.222;16.342;2023-12-20T02:28:51;2.80;99.90
17170;DHT22;8700;48.222;16.342;2023-12-20T02:32:12;2.70;99.90
17170;DHT22;8700;48.222;16.342;2023-12-20T02:35:33;2.70;99.90
17170;DHT22;8700;48.222;16.342;2023-12-20T02:38:56;2.80;99.90
17170;DHT22;8700;48.222;16.342;2023-12-20T02:42:17;2.90;99.90
17170;DHT22;8700;48.222;16.342;2023-12-20T02:45:38;3.00;99.90
17170;DHT22;8700;48.222;16.342;2023-12-20T02:49:00;3.10;99.90
17170;DHT22;8700;48.222;16.342;2023-12-20T02:52:21;3.30;99.90
17170;DHT22;8700;48.222;16.342;2023-12-20T02:55:44;3.40;99.90
17170;DHT22;8700;48.222;16.342;2023-12-20T02:59:05;3.40;99.90
17170;DHT22;8700;48.222;16.342;2023-12-20T03:02:28;3.30;99.90
17170;DHT22;8700;48.222;16.342;2023-12-20T03:05:49;3.20;99.90
17170;DHT22;8700;48.222;16.342;2023-12-20T03:09:10;3.30;99.90
17170;DHT22;8700;48.222;16.342;2023-12-20T03:12:33;3.40;99.90
17170;DHT22;8700;48.222;16.342;2023-12-20T03:15:54;3.30;99.90
17170;DHT22;8700;48.222;16.342;2023-12-20T03:19:16;3.20;99.90
17170;DHT22;8700;48.222;16.342;2023-12-20T03:22:37;3.50;99.90
17170;DHT22;8700;48.222;16.342;2023-12-20T03:25:59;3.60;99.90
17170;DHT22;8700;48.222;16.342;2023-12-20T03:29:21;3.60;99.90
17170;DHT22;8700;48.222;16.342;2023-12-20T03:32:43;3.60;99.90
17170;DHT22;8700;48.222;16.342;2023-12-20T03:36:05;3.60;99.90
17170;DHT22;8700;48.222;16.342;2023-12-20T03:39:26;3.40;99.90
17170;DHT22;8700;48.222;16.342;2023-12-20T03:42:48;3.30;99.90
17170;DHT22;8700;48.222;16.342;2023-12-20T03:46:10;3.40;99.90
17170;DHT22;8700;48.222;16.342;2023-12-20T03:49:31;3.40;99.90
17170;DHT22;8700;48.222;16.342;2023-12-20T03:52:52;3.50;99.90
17170;DHT22;8700;48.222;16.342;2023-12-20T03:56:14;3.70;99.90
17170;DHT22;8700;48.222;16.342;2023-12-20T03:59:35;3.80;99.90
17170;DHT22;8700;48.222;16.342;2023-12-20T04:02:58;4.10;99.90
17170;DHT22;8700;48.222;16.342;2023-12-20T04:06:19;4.40;99.90
17170;DHT22;8700;48.222;16.342;2023-12-20T04:09:40;4.80;99.90
17170;DHT22;8700;48.222;16.342;2023-12-20T04:13:02;5.10;99.90
17170;DHT22;8700;48.222;16.342;2023-12-20T04:16:23;5.10;99.90
17170;DHT22;8700;48.222;16.342;2023-12-20T04:19:46;4.90;99.90
17170;DHT22;8700;48.222;16.342;2023-12-20T04:23:07;4.50;99.90
17170;DHT22;8700;48.222;16.342;2023-12-20T04:26:28;4.20;99.90
17170;DHT22;8700;48.222;16.342;2023-12-20T04:29:50;3.80;99.90
17170;DHT22;8700;48.222;16.342;2023-12-20T04:33:11;3.30;99.90
17170;DHT22;8700;48.222;16.342;2023-12-20T04:36:34;2.90;99.90
17170;DHT22;8700;48.222;16.342;2023-12-20T04:39:55;2.70;99.90
17170;DHT22;8700;48.222;16.342;2023-12-20T04:43:17;2.70;99.90
17170;DHT22;8700;48.222;16.342;2023-12-20T04:46:39;2.80;99.90
17170;DHT22;8700;48.222;16.342;2023-12-20T04:50:00;3.00;99.90
17170;DHT22;8700;48.222;16.342;2023-12-20T04:53:24;3.30;99.90
17170;DHT22;8700;48.222;16.342;2023-12-20T04:56:46;4.10;99.90
17170;DHT22;8700;48.222;16.342;2023-12-20T05:00:07;4.90;99.90
17170;DHT22;8700;48.222;16.342;2023-12-20T05:03:29;5.90;99.90
17170;DHT22;8700;48.222;16.342;2023-12-20T05:06:50;6.80;99.90
17170;DHT22;8700;48.222;16.342;2023-12-20T05:10:13;7.30;99.90
17170;DHT22;8700;48.222;16.342;2023-12-20T05:13:34;7.60;99.90
17170;DHT22;8700;48.222;16.342;2023-12-20T05:16:55;7.80;99.90
17170;DHT22;8700;48.222;16.342;2023-12-20T05:20:17;8.00;99.90
17170;DHT22;8700;48.222;16.342;2023-12-20T05:23:38;8.10;99.90
17170;DHT22;8700;48.222;16.342;2023-12-20T05:27:00;8.10;99.90
17170;DHT22;8700;48.222;16.342;2023-12-20T05:30:22;8.20;99.90
17170;DHT22;8700;48.222;16.342;2023-12-20T05:33:43;8.20;99.90
17170;DHT22;8700;48.222;16.342;2023-12-20T05:37:05;8.20;99.90
17170;DHT22;8700;48.222;16.342;2023-12-20T05:40:26;8.30;99.90
17170;DHT22;8700;48.222;16.342;2023-12-20T05:43:49;8.30;99.90
17170;DHT22;8700;48.222;16.342;2023-12-20T05:47:11;8.40;99.90
17170;DHT22;8700;48.222;16.342;2023-12-20T05:50:46;8.40;99.90
17170;DHT22;8700;48.222;16.342;2023-12-20T05:54:09;8.60;99.90
17170;DHT22;8700;48.222;16.342;2023-12-20T05:57:30;8.80;99.90
17170;DHT22;8700;48.222;16.342;2023-12-20T06:00:53;8.90;99.90
17170;DHT22;8700;48.222;16.342;2023-12-20T06:04:14;9.00;99.90
17170;DHT22;8700;48.222;16.342;2023-12-20T06:07:36;9.20;99.90
17170;DHT22;8700;48.222;16.342;2023-12-20T06:10:57;9.10;99.90
17170;DHT22;8700;48.222;16.342;2023-12-20T06:14:18;9.20;99.90
17170;DHT22;8700;48.222;16.342;2023-12-20T06:17:41;9.20;99.90
17170;DHT22;8700;48.222;16.342;2023-12-20T06:21:02;9.30;99.90
17170;DHT22;8700;48.222;16.342;2023-12-20T06:24:24;9.20;99.90
17170;DHT22;8700;48.222;16.342;2023-12-20T06:27:47;9.20;99.90
17170;DHT22;8700;48.222;16.342;2023-12-20T06:31:09;9.30;99.90
17170;DHT22;8700;48.222;16.342;2023-12-20T06:34:31;9.20;99.90
17170;DHT22;8700;48.222;16.342;2023-12-20T06:37:52;9.30;99.90
17170;DHT22;8700;48.222;16.342;2023-12-20T06:41:14;9.30;99.90
17170;DHT22;8700;48.222;16.342;2023-12-20T06:44:36;9.40;99.90
17170;DHT22;8700;48.222;16.342;2023-12-20T06:47:58;9.30;99.90
17170;DHT22;8700;48.222;16.342;2023-12-20T06:51:21;9.20;99.90
17170;DHT22;8700;48.222;16.342;2023-12-20T06:54:45;9.10;99.90
17170;DHT22;8700;48.222;16.342;2023-12-20T06:58:06;9.00;99.90
17170;DHT22;8700;48.222;16.342;2023-12-20T07:01:28;9.10;99.90
17170;DHT22;8700;48.222;16.342;2023-12-20T07:04:49;9.30;99.90
17170;DHT22;8700;48.222;16.342;2023-12-20T07:08:12;9.50;99.90
17170;DHT22;8700;48.222;16.342;2023-12-20T07:11:35;9.60;99.90
17170;DHT22;8700;48.222;16.342;2023-12-20T07:14:56;9.60;99.90
17170;DHT22;8700;48.222;16.342;2023-12-20T07:18:17;9.50;99.90
17170;DHT22;8700;48.222;16.342;2023-12-20T07:21:39;9.40;99.90
17170;DHT22;8700;48.222;16.342;2023-12-20T07:25:01;9.60;99.90
17170;DHT22;8700;48.222;16.342;2023-12-20T07:28:23;9.40;99.90
17170;DHT22;8700;48.222;16.342;2023-12-20T07:31:44;9.50;99.90
17170;DHT22;8700;48.222;16.342;2023-12-20T07:35:06;9.30;99.90
17170;DHT22;8700;48.222;16.342;2023-12-20T07:38:28;8.80;99.90
17170;DHT22;8700;48.222;16.342;2023-12-20T07:41:50;8.70;99.90
17170;DHT22;8700;48.222;16.342;2023-12-20T07:45:12;8.60;99.90
17170;DHT22;8700;48.222;16.342;2023-12-20T07:48:33;8.50;99.90
17170;DHT22;8700;48.222;16.342;2023-12-20T07:51:55;8.60;99.90
17170;DHT22;8700;48.222;16.342;2023-12-20T07:55:16;8.50;99.90
17170;DHT22;8700;48.222;16.342;2023-12-20T07:58:39;8.40;99.90
17170;DHT22;8700;48.222;16.342;2023-12-20T08:02:00;8.60;99.90
17170;DHT22;8700;48.222;16.342;2023-12-20T08:05:21;8.70;99.90
17170;DHT22;8700;48.222;16.342;2023-12-20T08:08:43;8.90;99.90
17170;DHT22;8700;48.222;16.342;2023-12-20T08:12:04;9.00;99.90
17170;DHT22;8700;48.222;16.342;2023-12-20T08:15:27;9.10;99.90
17170;DHT22;8700;48.222;16.342;2023-12-20T08:18:48;9.00;99.90
17170;DHT22;8700;48.222;16.342;2023-12-20T08:22:09;9.20;99.90
17170;DHT22;8700;48.222;16.342;2023-12-20T08:25:31;9.20;99.90
17170;DHT22;8700;48.222;16.342;2023-12-20T08:28:52;9.00;99.90
17170;DHT22;8700;48.222;16.342;2023-12-20T08:32:15;9.10;99.90
17170;DHT22;8700;48.222;16.342;2023-12-20T08:35:36;9.00;99.90
17170;DHT22;8700;48.222;16.342;2023-12-20T08:38:58;9.10;99.90
17170;DHT22;8700;48.222;16.342;2023-12-20T08:42:20;9.00;99.90
17170;DHT22;8700;48.222;16.342;2023-12-20T08:45:42;9.10;99.90
17170;DHT22;8700;48.222;16.342;2023-12-20T08:49:04;9.10;99.90
17170;DHT22;8700;48.222;16.342;2023-12-20T08:52:26;9.20;99.90
17170;DHT22;8700;48.222;16.342;2023-12-20T08:55:49;9.20;99.90
17170;DHT22;8700;48.222;16.342;2023-12-20T08:59:10;8.80;99.90
17170;DHT22;8700;48.222;16.342;2023-12-20T09:02:32;8.70;99.90
17170;DHT22;8700;48.222;16.342;2023-12-20T09:05:54;8.40;99.90
17170;DHT22;8700;48.222;16.342;2023-12-20T09:09:16;8.40;99.90
17170;DHT22;8700;48.222;16.342;2023-12-20T09:12:37;8.30;99.90
17170;DHT22;8700;48.222;16.342;2023-12-20T09:16:01;8.30;99.90
17170;DHT22;8700;48.222;16.342;2023-12-20T09:19:22;8.20;99.90
17170;DHT22;8700;48.222;16.342;2023-12-20T09:22:44;8.20;99.90
17170;DHT22;8700;48.222;16.342;2023-12-20T09:26:06;8.20;99.90
17170;DHT22;8700;48.222;16.342;2023-12-20T09:29:27;8.30;99.90
17170;DHT22;8700;48.222;16.342;2023-12-20T09:32:48;8.10;99.90
17170;DHT22;8700;48.222;16.342;2023-12-20T09:36:10;8.20;99.90
17170;DHT22;8700;48.222;16.342;2023-12-20T09:39:32;8.00;99.90
17170;DHT22;8700;48.222;16.342;2023-12-20T09:42:57;8.10;99.90
17170;DHT22;8700;48.222;16.342;2023-12-20T09:46:22;8.00;99.90
17170;DHT22;8700;48.222;16.342;2023-12-20T09:49:45;7.70;99.90
17170;DHT22;8700;48.222;16.342;2023-12-20T09:53:08;7.50;99.90
17170;DHT22;8700;48.222;16.342;2023-12-20T09:56:32;7.40;99.90
17170;DHT22;8700;48.222;16.342;2023-12-20T09:59:53;7.40;99.90
17170;DHT22;8700;48.222;16.342;2023-12-20T10:03:15;7.50;99.90
17170;DHT22;8700;48.222;16.342;2023-12-20T10:06:36;7.40;99.90
17170;DHT22;8700;48.222;16.342;2023-12-20T10:09:58;7.50;99.90
17170;DHT22;8700;48.222;16.342;2023-12-20T10:13:20;7.20;99.90
17170;DHT22;8700;48.222;16.342;2023-12-20T10:16:42;7.00;99.90
17170;DHT22;8700;48.222;16.342;2023-12-20T10:20:04;7.00;99.90
17170;DHT22;8700;48.222;16.342;2023-12-20T10:23:29;7.30;99.90
17170;DHT22;8700;48.222;16.342;2023-12-20T10:27:01;7.30;99.90
17170;DHT22;8700;48.222;16.342;2023-12-20T10:30:27;7.40;99.90
17170;DHT22;8700;48.222;16.342;2023-12-20T10:33:48;7.60;99.90
17170;DHT22;8700;48.222;16.342;2023-12-20T10:37:10;7.70;99.90
17170;DHT22;8700;48.222;16.342;2023-12-20T10:40:32;7.50;99.90
17170;DHT22;8700;48.222;16.342;2023-12-20T10:43:58;7.60;99.90
17170;DHT22;8700;48.222;16.342;2023-12-20T10:47:21;7.80;99.90
17170;DHT22;8700;48.222;16.342;2023-12-20T10:50:44;7.80;99.90
17170;DHT22;8700;48.222;16.342;2023-12-20T10:54:05;8.00;99.90
17170;DHT22;8700;48.222;16.342;2023-12-20T10:57:29;7.80;99.90
17170;DHT22;8700;48.222;16.342;2023-12-20T11:00:52;8.00;99.90
17170;DHT22;8700;48.222;16.342;2023-12-20T11:04:21;8.20;99.90
17170;DHT22;8700;48.222;16.342;2023-12-20T11:07:47;8.20;99.90
17170;DHT22;8700;48.222;16.342;2023-12-20T11:11:14;8.10;99.90
17170;DHT22;8700;48.222;16.342;2023-12-20T11:14:42;8.10;99.90
17170;DHT22;8700;48.222;16.342;2023-12-20T11:18:06;8.10;99.90
17170;DHT22;8700;48.222;16.342;2023-12-20T11:21:29;8.30;99.90
17170;DHT22;8700;48.222;16.342;2023-12-20T11:24:52;8.50;99.90
17170;DHT22;8700;48.222;16.342;2023-12-20T11:28:13;8.40;99.90
17170;DHT22;8700;48.222;16.342;2023-12-20T11:31:40;8.40;99.90
17170;DHT22;8700;48.222;16.342;2023-12-20T11:35:17;8.30;99.90
17170;DHT22;8700;48.222;16.342;2023-12-20T11:38:53;8.00;99.90
17170;DHT22;8700;48.222;16.342;2023-12-20T11:42:15;8.10;99.90
17170;DHT22;8700;48.222;16.342;2023-12-20T11:45:36;8.20;99.90
17170;DHT22;8700;48.222;16.342;2023-12-20T11:48:57;8.30;99.90
17170;DHT22;8700;48.222;16.342;2023-12-20T11:52:19;8.60;99.90
17170;DHT22;8700;48.222;16.342;2023-12-20T11:55:41;8.60;99.90
17170;DHT22;8700;48.222;16.342;2023-12-20T11:59:03;8.70;99.90
17170;DHT22;8700;48.222;16.342;2023-12-20T12:02:24;8.40;99.90
17170;DHT22;8700;48.222;16.342;2023-12-20T12:05:47;8.30;99.90
17170;DHT22;8700;48.222;16.342;2023-12-20T12:09:09;8.30;99.90
17170;DHT22;8700;48.222;16.342;2023-12-20T12:12:31;8.50;99.90
17170;DHT22;8700;48.222;16.342;2023-12-20T12:15:53;8.70;99.90
17170;DHT22;8700;48.222;16.342;2023-12-20T12:19:21;8.80;99.90
17170;DHT22;8700;48.222;16.342;2023-12-20T12:22:42;8.60;99.90
17170;DHT22;8700;48.222;16.342;2023-12-20T12:26:04;8.60;99.90
17170;DHT22;8700;48.222;16.342;2023-12-20T12:29:27;8.90;99.90
17170;DHT22;8700;48.222;16.342;2023-12-20T12:32:48;9.10;99.90
17170;DHT22;8700;48.222;16.342;2023-12-20T12:36:12;9.30;99.90
17170;DHT22;8700;48.222;16.342;2023-12-20T12:39:36;9.40;99.90
17170;DHT22;8700;48.222;16.342;2023-12-20T12:42:57;9.20;99.90
17170;DHT22;8700;48.222;16.342;2023-12-20T12:46:19;9.30;99.90
17170;DHT22;8700;48.222;16.342;2023-12-20T12:49:41;8.90;99.90
17170;DHT22;8700;48.222;16.342;2023-12-20T12:53:03;8.40;99.90
17170;DHT22;8700;48.222;16.342;2023-12-20T12:56:24;8.50;99.90
17170;DHT22;8700;48.222;16.342;2023-12-20T12:59:46;8.60;99.90
17170;DHT22;8700;48.222;16.342;2023-12-20T13:03:08;8.70;99.90
17170;DHT22;8700;48.222;16.342;2023-12-20T13:06:30;8.60;99.90
17170;DHT22;8700;48.222;16.342;2023-12-20T13:09:51;8.90;99.90
17170;DHT22;8700;48.222;16.342;2023-12-20T13:13:12;8.90;99.90
17170;DHT22;8700;48.222;16.342;2023-12-20T13:16:34;8.90;99.90
17170;DHT22;8700;48.222;16.342;2023-12-20T13:19:57;8.90;99.90
17170;DHT22;8700;48.222;16.342;2023-12-20T13:23:19;8.70;99.90
17170;DHT22;8700;48.222;16.342;2023-12-20T13:26:40;8.60;99.90
17170;DHT22;8700;48.222;16.342;2023-12-20T13:30:02;8.60;99.90
17170;DHT22;8700;48.222;16.342;2023-12-20T13:33:23;8.70;99.90
17170;DHT22;8700;48.222;16.342;2023-12-20T13:36:46;8.50;99.90
17170;DHT22;8700;48.222;16.342;2023-12-20T13:40:10;8.50;99.90
17170;DHT22;8700;48.222;16.342;2023-12-20T13:43:32;8.70;99.90
17170;DHT22;8700;48.222;16.342;2023-12-20T13:46:54;8.60;99.90
17170;DHT22;8700;48.222;16.342;2023-12-20T13:50:15;8.60;99.90
17170;DHT22;8700;48.222;16.342;2023-12-20T13:53:38;8.80;99.90
17170;DHT22;8700;48.222;16.342;2023-12-20T13:56:59;8.60;99.90
17170;DHT22;8700;48.222;16.342;2023-12-20T14:00:20;8.60;99.90
17170;DHT22;8700;48.222;16.342;2023-12-20T14:03:41;8.50;99.90
17170;DHT22;8700;48.222;16.342;2023-12-20T14:07:03;8.30;99.90
17170;DHT22;8700;48.222;16.342;2023-12-20T14:10:25;8.10;99.90
17170;DHT22;8700;48.222;16.342;2023-12-20T14:13:47;8.00;99.90
17170;DHT22;8700;48.222;16.342;2023-12-20T14:17:08;8.00;99.90
17170;DHT22;8700;48.222;16.342;2023-12-20T14:20:30;7.90;99.90
17170;DHT22;8700;48.222;16.342;2023-12-20T14:23:51;8.10;99.90
17170;DHT22;8700;48.222;16.342;2023-12-20T14:27:14;8.30;99.90
17170;DHT22;8700;48.222;16.342;2023-12-20T14:30:35;8.30;99.90
17170;DHT22;8700;48.222;16.342;2023-12-20T14:33:57;8.40;99.90
17170;DHT22;8700;48.222;16.342;2023-12-20T14:37:19;8.10;99.90
17170;DHT22;8700;48.222;16.342;2023-12-20T14:40:40;8.00;99.90
17170;DHT22;8700;48.222;16.342;2023-12-20T14:44:03;7.90;99.90
17170;DHT22;8700;48.222;16.342;2023-12-20T14:47:25;8.10;99.90
17170;DHT22;8700;48.222;16.342;2023-12-20T14:50:46;8.30;99.90
17170;DHT22;8700;48.222;16.342;2023-12-20T14:54:08;8.20;99.90
17170;DHT22;8700;48.222;16.342;2023-12-20T14:57:30;8.10;99.90
17170;DHT22;8700;48.222;16.342;2023-12-20T15:00:52;8.30;99.90
17170;DHT22;8700;48.222;16.342;2023-12-20T15:04:13;8.20;99.90
17170;DHT22;8700;48.222;16.342;2023-12-20T15:07:35;8.20;99.90
17170;DHT22;8700;48.222;16.342;2023-12-20T15:10:56;8.30;99.90
17170;DHT22;8700;48.222;16.342;2023-12-20T15:14:19;8.40;99.90
17170;DHT22;8700;48.222;16.342;2023-12-20T15:17:41;8.30;99.90
17170;DHT22;8700;48.222;16.342;2023-12-20T15:21:03;8.30;99.90
17170;DHT22;8700;48.222;16.342;2023-12-20T15:24:25;8.10;99.90
17170;DHT22;8700;48.222;16.342;2023-12-20T15:27:48;7.90;99.90
17170;DHT22;8700;48.222;16.342;2023-12-20T15:31:12;7.90;99.90
17170;DHT22;8700;48.222;16.342;2023-12-20T15:34:35;8.00;99.90
17170;DHT22;8700;48.222;16.342;2023-12-20T15:37:56;8.10;99.90
17170;DHT22;8700;48.222;16.342;2023-12-20T15:41:18;8.30;99.90
17170;DHT22;8700;48.222;16.342;2023-12-20T15:44:39;8.30;99.90
17170;DHT22;8700;48.222;16.342;2023-12-20T15:48:01;8.10;99.90
17170;DHT22;8700;48.222;16.342;2023-12-20T15:51:25;8.20;99.90
17170;DHT22;8700;48.222;16.342;2023-12-20T15:54:46;8.20;99.90
17170;DHT22;8700;48.222;16.342;2023-12-20T15:58:08;8.10;99.90
17170;DHT22;8700;48.222;16.342;2023-12-20T16:01:29;7.90;99.90
17170;DHT22;8700;48.222;16.342;2023-12-20T16:04:51;7.90;99.90
17170;DHT22;8700;48.222;16.342;2023-12-20T16:08:13;8.10;99.90
17170;DHT22;8700;48.222;16.342;2023-12-20T16:11:35;8.00;99.90
17170;DHT22;8700;48.222;16.342;2023-12-20T16:14:56;8.00;99.90
17170;DHT22;8700;48.222;16.342;2023-12-20T16:18:17;8.00;99.90
17170;DHT22;8700;48.222;16.342;2023-12-20T16:21:39;7.80;99.90
17170;DHT22;8700;48.222;16.342;2023-12-20T16:25:01;7.90;99.90
17170;DHT22;8700;48.222;16.342;2023-12-20T16:28:23;8.00;99.90
17170;DHT22;8700;48.222;16.342;2023-12-20T16:31:44;7.90;99.90
17170;DHT22;8700;48.222;16.342;2023-12-20T16:35:05;7.90;99.90
17170;DHT22;8700;48.222;16.342;2023-12-20T16:38:27;7.90;99.90
17170;DHT22;8700;48.222;16.342;2023-12-20T16:41:49;8.00;99.90
17170;DHT22;8700;48.222;16.342;2023-12-20T16:45:11;7.90;99.90
17170;DHT22;8700;48.222;16.342;2023-12-20T16:48:32;8.00;99.90
17170;DHT22;8700;48.222;16.342;2023-12-20T16:51:53;7.90;99.90
17170;DHT22;8700;48.222;16.342;2023-12-20T16:55:14;7.90;99.90
17170;DHT22;8700;48.222;16.342;2023-12-20T16:58:37;7.90;99.90
17170;DHT22;8700;48.222;16.342;2023-12-20T17:01:58;7.70;99.90
17170;DHT22;8700;48.222;16.342;2023-12-20T17:05:21;7.80;99.90
17170;DHT22;8700;48.222;16.342;2023-12-20T17:08:42;7.80;99.90
17170;DHT22;8700;48.222;16.342;2023-12-20T17:12:05;7.90;99.90
17170;DHT22;8700;48.222;16.342;2023-12-20T17:15:29;7.70;99.90
17170;DHT22;8700;48.222;16.342;2023-12-20T17:18:50;7.90;99.90
17170;DHT22;8700;48.222;16.342;2023-12-20T17:22:11;7.90;99.90
17170;DHT22;8700;48.222;16.342;2023-12-20T17:25:32;8.00;99.90
17170;DHT22;8700;48.222;16.342;2023-12-20T17:28:58;8.00;99.90
17170;DHT22;8700;48.222;16.342;2023-12-20T17:32:21;8.10;99.90
17170;DHT22;8700;48.222;16.342;2023-12-20T17:35:42;8.00;99.90
17170;DHT22;8700;48.222;16.342;2023-12-20T17:39:03;7.80;99.90
17170;DHT22;8700;48.222;16.342;2023-12-20T17:42:24;7.50;99.90
17170;DHT22;8700;48.222;16.342;2023-12-20T17:45:46;7.40;99.90
17170;DHT22;8700;48.222;16.342;2023-12-20T17:49:08;7.40;99.90
17170;DHT22;8700;48.222;16.342;2023-12-20T17:52:29;7.30;99.90
17170;DHT22;8700;48.222;16.342;2023-12-20T17:55:51;7.30;99.90
17170;DHT22;8700;48.222;16.342;2023-12-20T17:59:12;7.30;99.90
17170;DHT22;8700;48.222;16.342;2023-12-20T18:02:33;7.40;99.90
17170;DHT22;8700;48.222;16.342;2023-12-20T18:05:55;7.40;99.90
17170;DHT22;8700;48.222;16.342;2023-12-20T18:09:17;7.30;99.90
17170;DHT22;8700;48.222;16.342;2023-12-20T18:12:38;7.20;99.90
17170;DHT22;8700;48.222;16.342;2023-12-20T18:15:59;7.20;99.90
17170;DHT22;8700;48.222;16.342;2023-12-20T18:19:20;7.20;99.90
17170;DHT22;8700;48.222;16.342;2023-12-20T18:22:43;7.30;99.90
17170;DHT22;8700;48.222;16.342;2023-12-20T18:26:04;7.30;99.90
17170;DHT22;8700;48.222;16.342;2023-12-20T18:29:25;7.20;99.90
17170;DHT22;8700;48.222;16.342;2023-12-20T18:32:46;7.40;99.90
17170;DHT22;8700;48.222;16.342;2023-12-20T18:36:08;7.30;99.90
17170;DHT22;8700;48.222;16.342;2023-12-20T18:39:31;7.10;99.90
17170;DHT22;8700;48.222;16.342;2023-12-20T18:42:52;7.00;99.90
17170;DHT22;8700;48.222;16.342;2023-12-20T18:46:13;7.30;99.90
17170;DHT22;8700;48.222;16.342;2023-12-20T18:49:34;7.40;99.90
17170;DHT22;8700;48.222;16.342;2023-12-20T18:52:55;7.30;99.90
17170;DHT22;8700;48.222;16.342;2023-12-20T18:56:18;7.40;99.90
17170;DHT22;8700;48.222;16.342;2023-12-20T18:59:39;7.40;99.90
17170;DHT22;8700;48.222;16.342;2023-12-20T19:03:00;7.30;99.90
17170;DHT22;8700;48.222;16.342;2023-12-20T19:06:21;7.20;99.90
17170;DHT22;8700;48.222;16.342;2023-12-20T19:09:42;7.20;99.90
17170;DHT22;8700;48.222;16.342;2023-12-20T19:13:05;7.40;99.90
17170;DHT22;8700;48.222;16.342;2023-12-20T19:16:26;7.30;99.90
17170;DHT22;8700;48.222;16.342;2023-12-20T19:19:48;7.10;99.90
17170;DHT22;8700;48.222;16.342;2023-12-20T19:23:09;7.20;99.90
17170;DHT22;8700;48.222;16.342;2023-12-20T19:26:30;7.10;99.90
17170;DHT22;8700;48.222;16.342;2023-12-20T19:29:53;7.20;99.90
17170;DHT22;8700;48.222;16.342;2023-12-20T19:33:17;7.40;99.90
17170;DHT22;8700;48.222;16.342;2023-12-20T19:36:38;7.40;99.90
17170;DHT22;8700;48.222;16.342;2023-12-20T19:39:59;7.20;99.90
17170;DHT22;8700;48.222;16.342;2023-12-20T19:43:20;7.10;99.90
17170;DHT22;8700;48.222;16.342;2023-12-20T19:46:43;7.20;99.90
17170;DHT22;8700;48.222;16.342;2023-12-20T19:50:08;7.30;99.90
17170;DHT22;8700;48.222;16.342;2023-12-20T19:53:29;7.40;99.90
17170;DHT22;8700;48.222;16.342;2023-12-20T19:56:50;7.40;99.90
17170;DHT22;8700;48.222;16.342;2023-12-20T20:00:13;7.10;99.90
17170;DHT22;8700;48.222;16.342;2023-12-20T20:03:35;7.30;99.90
17170;DHT22;8700;48.222;16.342;2023-12-20T20:06:56;7.20;99.90
17170;DHT22;8700;48.222;16.342;2023-12-20T20:10:17;7.30;99.90
17170;DHT22;8700;48.222;16.342;2023-12-20T20:13:38;7.30;99.90
17170;DHT22;8700;48.222;16.342;2023-12-20T20:17:00;7.10;99.90
17170;DHT22;8700;48.222;16.342;2023-12-20T20:20:22;7.00;99.90
17170;DHT22;8700;48.222;16.342;2023-12-20T20:23:44;7.10;99.90
17170;DHT22;8700;48.222;16.342;2023-12-20T20:27:05;7.10;99.90
17170;DHT22;8700;48.222;16.342;2023-12-20T20:30:26;7.30;99.90
17170;DHT22;8700;48.222;16.342;2023-12-20T20:33:47;7.30;99.90
17170;DHT22;8700;48.222;16.342;2023-12-20T20:37:10;7.10;99.90
17170;DHT22;8700;48.222;16.342;2023-12-20T20:40:31;7.10;99.90
17170;DHT22;8700;48.222;16.342;2023-12-20T20:43:53;7.20;99.90
17170;DHT22;8700;48.222;16.342;2023-12-20T20:47:14;7.10;99.90
17170;DHT22;8700;48.222;16.342;2023-12-20T20:50:35;7.00;99.90
17170;DHT22;8700;48.222;16.342;2023-12-20T20:53:58;7.00;99.90
17170;DHT22;8700;48.222;16.342;2023-12-20T20:57:19;6.90;99.90
17170;DHT22;8700;48.222;16.342;2023-12-20T21:00:41;7.10;99.90
17170;DHT22;8700;48.222;16.342;2023-12-20T21:04:02;7.10;99.90
17170;DHT22;8700;48.222;16.342;2023-12-20T21:07:24;7.10;99.90
17170;DHT22;8700;48.222;16.342;2023-12-20T21:10:47;7.00;99.90
17170;DHT22;8700;48.222;16.342;2023-12-20T21:14:09;6.90;99.90
17170;DHT22;8700;48.222;16.342;2023-12-20T21:17:30;6.90;99.90
17170;DHT22;8700;48.222;16.342;2023-12-20T21:20:51;7.10;99.90
17170;DHT22;8700;48.222;16.342;2023-12-20T21:24:13;6.80;99.90
17170;DHT22;8700;48.222;16.342;2023-12-20T21:27:36;6.80;99.90
17170;DHT22;8700;48.222;16.342;2023-12-20T21:30:58;6.90;99.90
17170;DHT22;8700;48.222;16.342;2023-12-20T21:34:19;6.80;99.90